createdAt,value
2023-04-13T00:00:47.928Z,68.52
2023-04-13T00:02:56.240Z,68.35
2023-04-13T00:04:59.018Z,68.59
2023-04-13T00:07:03.645Z,68.52
2023-04-13T00:09:08.953Z,68.62
2023-04-13T00:11:13.466Z,68.80
2023-04-13T00:13:16.232Z,68.84
2023-04-13T00:15:20.103Z,68.95
2023-04-13T00:17:25.457Z,68.80
2023-04-13T00:19:28.596Z,68.54
2023-04-13T00:21:31.619Z,68.47
2023-04-13T00:23:37.465Z,68.07
2023-04-13T00:25:43.426Z,68.02
2023-04-13T00:27:46.882Z,67.94
2023-04-13T00:29:49.879Z,67.94
2023-04-13T00:31:53.694Z,67.71
2023-04-13T00:33:57.296Z,67.95
2023-04-13T00:36:05.898Z,67.73
2023-04-13T00:38:09.386Z,67.74
2023-04-13T00:40:19.038Z,67.44
2023-04-13T00:42:22.799Z,67.21
2023-04-13T00:44:26.100Z,67.48
2023-04-13T00:46:29.586Z,67.28
2023-04-13T00:48:35.152Z,67.20
2023-04-13T00:50:39.647Z,67.26
2023-04-13T00:52:44.600Z,67.21
2023-04-13T00:54:51.773Z,67.23
2023-04-13T00:56:55.197Z,67.18
2023-04-13T00:58:59.176Z,67.10
2023-04-13T01:01:03.210Z,67.08
2023-04-13T01:03:06.043Z,66.79
2023-04-13T01:05:12.563Z,66.79
2023-04-13T01:07:32.321Z,66.93
2023-04-13T01:09:42.361Z,66.90
2023-04-13T01:11:58.029Z,66.86
2023-04-13T01:14:09.234Z,66.92
2023-04-13T01:16:22.204Z,66.79
2023-04-13T01:18:27.727Z,66.68
2023-04-13T01:20:33.522Z,66.91
2023-04-13T01:22:45.647Z,66.79
2023-04-13T01:25:15.201Z,66.91
2023-04-13T01:27:23.487Z,66.83
2023-04-13T01:29:28.619Z,66.85
2023-04-13T01:31:33.268Z,66.65
2023-04-13T01:33:40.603Z,66.53
2023-04-13T01:35:45.201Z,66.68
2023-04-13T01:37:54.352Z,66.45
2023-04-13T01:40:00.962Z,66.52
2023-04-13T01:42:28.974Z,66.55
2023-04-13T01:44:39.044Z,66.68
2023-04-13T01:46:48.644Z,66.73
2023-04-13T01:49:11.579Z,66.78
2023-04-13T01:51:31.365Z,66.78
2023-04-13T01:53:40.486Z,66.96
2023-04-13T01:55:49.044Z,67.09
2023-04-13T01:57:56.416Z,67.05
2023-04-13T02:00:00.245Z,66.89
2023-04-13T02:02:04.659Z,67.09
2023-04-13T02:04:11.560Z,67.25
2023-04-13T02:06:17.755Z,67.16
2023-04-13T02:08:21.144Z,67.26
2023-04-13T02:10:26.553Z,67.29
2023-04-13T02:12:37.827Z,67.26
2023-04-13T02:14:41.608Z,67.38
2023-04-13T02:16:44.533Z,67.38
2023-04-13T02:18:49.897Z,67.42
2023-04-13T02:21:19.173Z,67.35
2023-04-13T02:23:22.322Z,67.63
2023-04-13T02:25:28.100Z,67.82
2023-04-13T02:27:33.056Z,68.05
2023-04-13T02:29:54.458Z,68.40
2023-04-13T02:31:58.188Z,68.52
2023-04-13T02:34:01.786Z,68.69
2023-04-13T02:36:05.921Z,68.70
2023-04-13T02:38:12.012Z,68.65
2023-04-13T02:40:36.390Z,68.81
2023-04-13T02:42:39.970Z,68.90
2023-04-13T02:44:43.530Z,69.00
2023-04-13T02:46:46.613Z,68.84
2023-04-13T02:48:51.914Z,69.03
2023-04-13T02:50:58.085Z,68.95
2023-04-13T02:53:10.574Z,69.09
2023-04-13T02:55:16.428Z,69.13
2023-04-13T02:57:26.653Z,69.18
2023-04-13T02:59:30.081Z,68.99
2023-04-13T03:01:35.731Z,69.19
2023-04-13T03:03:41.947Z,69.22
2023-04-13T03:05:46.716Z,69.25
2023-04-13T03:07:53.655Z,69.27
2023-04-13T03:09:58.072Z,69.15
2023-04-13T03:12:02.757Z,69.12
2023-04-13T03:14:15.411Z,68.95
2023-04-13T03:16:25.128Z,69.02
2023-04-13T03:18:32.236Z,68.95
2023-04-13T03:20:35.402Z,69.10
2023-04-13T03:22:39.552Z,68.71
2023-04-13T03:24:42.411Z,68.67
2023-04-13T03:26:45.570Z,68.66
2023-04-13T03:28:52.027Z,68.38
2023-04-13T03:30:55.630Z,68.43
2023-04-13T03:32:59.175Z,68.33
2023-04-13T03:35:05.629Z,68.30
2023-04-13T03:37:10.866Z,68.10
2023-04-13T03:39:14.857Z,68.20
2023-04-13T03:41:19.597Z,68.17
2023-04-13T03:43:23.705Z,68.35
2023-04-13T03:45:49.431Z,68.13
2023-04-13T03:47:55.706Z,68.24
2023-04-13T03:49:59.408Z,68.06
2023-04-13T03:52:03.889Z,68.01
2023-04-13T03:54:13.587Z,67.92
2023-04-13T03:56:17.702Z,67.79
2023-04-13T03:58:22.076Z,67.60
2023-04-13T04:00:25.039Z,67.63
2023-04-13T04:02:43.686Z,67.69
2023-04-13T04:04:49.314Z,67.58
2023-04-13T04:06:53.201Z,67.50
2023-04-13T04:08:58.467Z,67.34
2023-04-13T04:11:15.357Z,67.29
2023-04-13T04:13:22.001Z,67.21
2023-04-13T04:15:29.355Z,67.44
2023-04-13T04:17:40.064Z,67.25
2023-04-13T04:19:43.502Z,67.16
2023-04-13T04:21:47.228Z,67.20
2023-04-13T04:23:52.432Z,67.16
2023-04-13T04:26:00.835Z,67.17
2023-04-13T04:28:09.229Z,66.97
2023-04-13T04:30:14.161Z,66.97
2023-04-13T04:32:18.655Z,66.80
2023-04-13T04:34:22.178Z,66.94
2023-04-13T04:36:26.788Z,66.93
2023-04-13T04:38:38.016Z,66.96
2023-04-13T04:40:46.293Z,66.97
2023-04-13T04:42:53.810Z,66.87
2023-04-13T04:45:09.196Z,66.79
2023-04-13T04:47:19.956Z,66.89
2023-04-13T04:49:46.148Z,66.89
2023-04-13T04:51:52.609Z,66.79
2023-04-13T04:53:58.729Z,66.58
2023-04-13T04:56:01.730Z,66.39
2023-04-13T04:58:20.377Z,66.32
2023-04-13T05:00:26.577Z,66.31
2023-04-13T05:02:44.644Z,66.10
2023-04-13T05:04:48.037Z,65.91
2023-04-13T05:06:50.797Z,65.92
2023-04-13T05:11:24.167Z,65.60
2023-04-13T05:13:27.736Z,65.67
2023-04-13T05:15:39.158Z,65.54
2023-04-13T05:17:46.783Z,65.44
2023-04-13T05:19:50.732Z,65.47
2023-04-13T05:22:01.171Z,65.30
2023-04-13T05:24:05.617Z,65.20
2023-04-13T05:26:13.199Z,65.19
2023-04-13T05:28:18.639Z,64.97
2023-04-13T05:30:28.369Z,65.10
2023-04-13T05:32:36.177Z,65.02
2023-04-13T05:34:39.672Z,65.09
2023-04-13T05:36:48.397Z,65.23
2023-04-13T05:38:52.374Z,65.23
2023-04-13T05:40:59.044Z,65.40
2023-04-13T05:43:10.337Z,65.43
2023-04-13T05:45:21.577Z,65.45
2023-04-13T05:47:38.237Z,65.43
2023-04-13T05:49:45.690Z,65.17
2023-04-13T05:51:49.484Z,65.07
2023-04-13T05:53:54.216Z,65.26
2023-04-13T05:55:59.953Z,64.81
2023-04-13T05:58:05.736Z,64.70
2023-04-13T06:00:10.669Z,64.70
2023-04-13T06:02:21.420Z,64.60
2023-04-13T06:04:27.729Z,64.96
2023-04-13T06:06:41.622Z,64.58
2023-04-13T06:08:46.941Z,64.36
2023-04-13T06:10:51.647Z,64.11
2023-04-13T06:12:55.487Z,64.06
2023-04-13T06:14:58.236Z,63.90
2023-04-13T06:17:09.031Z,63.77
2023-04-13T06:19:12.999Z,64.03
2023-04-13T06:21:15.902Z,63.74
2023-04-13T06:23:23.066Z,63.75
2023-04-13T06:25:31.033Z,63.80
2023-04-13T06:27:34.580Z,63.86
2023-04-13T06:29:41.571Z,63.75
2023-04-13T06:31:53.027Z,63.19
2023-04-13T06:34:00.425Z,63.09
2023-04-13T06:36:10.755Z,63.07
2023-04-13T06:38:14.765Z,63.28
2023-04-13T06:40:28.320Z,63.39
2023-04-13T06:42:40.583Z,63.32
2023-04-13T06:45:13.818Z,63.29
2023-04-13T06:47:21.606Z,63.52
2023-04-13T06:49:24.652Z,63.33
2023-04-13T06:51:28.063Z,63.17
2023-04-13T06:53:33.926Z,63.14
2023-04-13T06:55:37.282Z,63.31
2023-04-13T06:57:53.065Z,63.03
2023-04-13T06:59:56.607Z,62.80
2023-04-13T07:02:00.417Z,63.20
2023-04-13T07:04:08.348Z,62.86
2023-04-13T07:06:12.410Z,62.86
2023-04-13T07:08:16.549Z,63.05
2023-04-13T07:10:19.799Z,62.51
2023-04-13T07:12:23.237Z,62.40
2023-04-13T07:14:30.250Z,62.22
2023-04-13T07:16:35.766Z,62.08
2023-04-13T07:18:39.875Z,61.86
2023-04-13T07:20:42.891Z,61.35
2023-04-13T07:22:46.396Z,61.69
2023-04-13T07:24:51.822Z,61.55
2023-04-13T07:26:59.408Z,61.90
2023-04-13T07:29:02.350Z,61.65
2023-04-13T07:31:09.288Z,61.42
2023-04-13T07:33:14.423Z,61.60
2023-04-13T07:35:18.181Z,61.52
2023-04-13T07:37:21.697Z,61.34
2023-04-13T07:39:24.706Z,61.31
2023-04-13T07:41:29.548Z,61.30
2023-04-13T07:43:35.488Z,61.04
2023-04-13T07:45:39.962Z,61.10
2023-04-13T07:47:43.422Z,61.12
2023-04-13T07:49:47.328Z,60.83
2023-04-13T07:52:00.067Z,61.14
2023-04-13T07:54:05.096Z,61.38
2023-04-13T07:56:09.055Z,61.30
2023-04-13T07:58:14.634Z,61.47
2023-04-13T08:00:21.060Z,61.36
2023-04-13T08:02:26.352Z,61.40
2023-04-13T08:04:32.371Z,61.54
2023-04-13T08:06:43.716Z,61.82
2023-04-13T08:08:48.028Z,61.84
2023-04-13T08:10:52.205Z,61.80
2023-04-13T08:12:55.373Z,61.28
2023-04-13T08:15:00.928Z,61.20
2023-04-13T08:17:06.163Z,61.26
2023-04-13T08:19:09.776Z,60.98
2023-04-13T08:21:16.021Z,60.90
2023-04-13T08:23:21.190Z,60.47
2023-04-13T08:25:25.606Z,60.08
2023-04-13T08:27:31.934Z,59.94
2023-04-13T08:29:41.236Z,59.91
2023-04-13T08:31:47.676Z,59.70
2023-04-13T08:33:52.149Z,60.03
2023-04-13T08:35:57.196Z,59.99
2023-04-13T08:38:02.588Z,59.91
2023-04-13T08:40:08.223Z,59.65
2023-04-13T08:42:11.950Z,59.55
2023-04-13T08:44:15.783Z,59.72
2023-04-13T08:46:21.483Z,59.72
2023-04-13T08:48:30.311Z,59.61
2023-04-13T08:50:36.826Z,59.76
2023-04-13T08:52:40.275Z,59.17
2023-04-13T08:54:52.512Z,59.32
2023-04-13T08:57:00.186Z,59.43
2023-04-13T08:59:09.199Z,59.28
2023-04-13T09:01:16.456Z,58.74
2023-04-13T09:03:26.208Z,58.73
2023-04-13T09:05:31.649Z,58.51
2023-04-13T09:07:38.820Z,58.62
2023-04-13T09:09:48.090Z,58.65
2023-04-13T09:11:52.283Z,58.81
2023-04-13T09:13:55.368Z,58.89
2023-04-13T09:16:00.814Z,58.94
2023-04-13T09:18:16.492Z,58.88
2023-04-13T09:20:25.338Z,58.94
2023-04-13T09:22:29.290Z,58.16
2023-04-13T09:24:40.185Z,57.63
2023-04-13T09:26:47.835Z,57.34
2023-04-13T09:28:56.535Z,57.58
2023-04-13T09:31:05.883Z,57.52
2023-04-13T09:33:10.523Z,57.11
2023-04-13T09:35:14.158Z,56.71
2023-04-13T09:37:22.232Z,56.87
2023-04-13T09:39:29.747Z,56.89
2023-04-13T09:41:38.668Z,57.05
2023-04-13T09:43:45.445Z,57.04
2023-04-13T09:45:49.111Z,56.96
2023-04-13T09:47:53.259Z,57.02
2023-04-13T09:49:57.240Z,56.98
2023-04-13T09:52:00.171Z,57.27
2023-04-13T09:54:03.752Z,57.00
2023-04-13T09:56:07.110Z,57.14
2023-04-13T09:58:14.831Z,56.88
2023-04-13T10:00:22.465Z,56.55
2023-04-13T10:02:39.074Z,56.41
2023-04-13T10:04:45.889Z,56.09
2023-04-13T10:07:05.344Z,55.53
2023-04-13T10:09:10.807Z,55.60
2023-04-13T10:11:15.395Z,55.69
2023-04-13T10:13:23.506Z,55.64
2023-04-13T10:15:51.899Z,55.74
2023-04-13T10:18:12.854Z,55.91
2023-04-13T10:20:31.236Z,56.11
2023-04-13T10:22:36.235Z,56.28
2023-04-13T10:24:39.902Z,56.44
2023-04-13T10:26:46.166Z,56.18
2023-04-13T10:28:59.518Z,56.06
2023-04-13T10:31:05.597Z,56.25
2023-04-13T10:33:10.757Z,56.46
2023-04-13T10:35:16.470Z,55.77
2023-04-13T10:37:34.212Z,55.28
2023-04-13T10:39:38.746Z,55.44
2023-04-13T10:42:00.543Z,55.60
2023-04-13T10:44:12.385Z,55.33
2023-04-13T10:46:16.577Z,55.44
2023-04-13T10:48:21.863Z,55.67
2023-04-13T10:50:27.860Z,55.91
2023-04-13T10:52:31.719Z,55.59
2023-04-13T10:54:36.372Z,54.95
2023-04-13T10:56:40.892Z,55.07
2023-04-13T10:58:44.653Z,54.95
2023-04-13T11:00:58.413Z,55.00
2023-04-13T11:03:02.962Z,54.97
2023-04-13T11:05:06.846Z,54.89
2023-04-13T11:07:17.719Z,54.81
2023-04-13T11:09:22.840Z,54.92
2023-04-13T11:11:28.064Z,54.84
2023-04-13T11:13:33.918Z,55.02
2023-04-13T11:16:00.909Z,55.07
2023-04-13T11:18:06.686Z,54.97
2023-04-13T11:20:31.581Z,55.25
2023-04-13T11:22:35.932Z,55.53
2023-04-13T11:24:38.662Z,55.29
2023-04-13T11:26:43.261Z,55.24
2023-04-13T11:28:47.644Z,55.61
2023-04-13T11:31:21.612Z,55.68
2023-04-13T11:33:33.418Z,55.13
2023-04-13T11:35:49.733Z,54.63
2023-04-13T11:37:56.030Z,54.36
2023-04-13T11:39:59.451Z,54.18
2023-04-13T11:42:07.184Z,54.03
2023-04-13T11:44:13.074Z,54.17
2023-04-13T11:46:24.103Z,54.15
2023-04-13T11:48:29.197Z,53.95
2023-04-13T11:50:32.717Z,53.90
2023-04-13T11:52:36.017Z,53.96
2023-04-13T11:54:40.848Z,54.00
2023-04-13T11:56:43.784Z,53.83
2023-04-13T11:58:50.174Z,54.22
2023-04-13T12:00:56.963Z,54.36
2023-04-13T12:03:15.212Z,54.02
2023-04-13T12:05:28.833Z,54.26
2023-04-13T12:07:33.370Z,54.34
2023-04-13T12:09:56.320Z,54.24
2023-04-13T12:12:45.000Z,54.40
2023-04-13T12:18:49.540Z,54.39
2023-04-13T12:20:53.652Z,54.42
2023-04-13T12:25:17.822Z,54.27
2023-04-13T12:27:20.582Z,54.17
2023-04-13T12:29:23.444Z,54.10
2023-04-13T12:31:33.543Z,53.73
2023-04-13T12:33:38.738Z,53.89
2023-04-13T12:35:41.497Z,53.97
2023-04-13T12:37:44.281Z,53.86
2023-04-13T12:39:47.655Z,53.82
2023-04-13T12:41:50.497Z,54.14
2023-04-13T12:43:53.690Z,54.00
2023-04-13T12:45:58.367Z,53.88
2023-04-13T12:48:01.083Z,53.89
2023-04-13T12:50:08.709Z,53.85
2023-04-13T12:52:11.589Z,53.89
2023-04-13T12:54:14.698Z,53.88
2023-04-13T12:56:17.387Z,53.96
2023-04-13T12:58:20.069Z,54.06
2023-04-13T13:00:35.408Z,53.86
2023-04-13T13:02:40.341Z,53.96
2023-04-13T13:04:43.686Z,54.10
2023-04-13T13:06:46.716Z,54.11
2023-04-13T13:08:51.003Z,54.16
2023-04-13T13:10:53.725Z,54.58
2023-04-13T13:12:57.430Z,54.91
2023-04-13T13:15:01.517Z,55.21
2023-04-13T13:17:04.988Z,55.75
2023-04-13T13:19:14.324Z,55.97
2023-04-13T13:21:29.825Z,56.43
2023-04-13T13:23:33.514Z,56.29
2023-04-13T13:25:38.139Z,56.41
2023-04-13T13:28:10.478Z,56.19
2023-04-13T13:30:09.900Z,56.35
2023-04-13T13:32:12.903Z,56.65
2023-04-13T13:34:16.662Z,56.90
2023-04-13T13:36:42.797Z,56.97
2023-04-13T13:38:47.437Z,56.37
2023-04-13T13:40:59.252Z,56.42
2023-04-13T13:43:02.293Z,56.33
2023-04-13T13:45:05.973Z,56.35
2023-04-13T13:47:09.107Z,55.99
2023-04-13T13:49:14.649Z,55.70
2023-04-13T13:51:35.453Z,55.34
2023-04-13T13:53:38.617Z,54.88
2023-04-13T13:55:41.684Z,54.80
2023-04-13T13:57:44.264Z,54.67
2023-04-13T13:59:49.241Z,54.70
2023-04-13T14:01:53.103Z,54.98
2023-04-13T14:03:56.761Z,55.30
2023-04-13T14:06:24.763Z,55.09
2023-04-13T14:08:28.678Z,54.74
2023-04-13T14:10:32.146Z,54.79
2023-04-13T14:12:36.571Z,54.37
2023-04-13T14:14:39.647Z,54.40
2023-04-13T14:16:44.262Z,54.21
2023-04-13T14:18:49.054Z,54.26
2023-04-13T14:20:52.355Z,54.25
2023-04-13T14:22:57.200Z,54.17
2023-04-13T14:25:02.267Z,53.99
2023-04-13T14:27:06.446Z,53.85
2023-04-13T14:29:11.188Z,53.82
2023-04-13T14:31:17.286Z,53.59
2023-04-13T14:33:20.760Z,54.05
2023-04-13T14:35:23.416Z,54.18
2023-04-13T14:37:28.099Z,54.10
2023-04-13T14:39:32.507Z,53.65
2023-04-13T14:41:35.665Z,53.29
2023-04-13T14:43:38.983Z,52.99
2023-04-13T14:45:42.925Z,52.61
2023-04-13T14:47:48.742Z,52.53
2023-04-13T14:49:52.960Z,52.14
2023-04-13T14:51:58.386Z,51.77
2023-04-13T14:54:01.589Z,51.83
2023-04-13T14:56:05.472Z,51.40
2023-04-13T14:58:09.277Z,51.49
2023-04-13T15:00:22.249Z,51.49
2023-04-13T15:02:28.769Z,51.38
2023-04-13T15:04:32.736Z,51.12
2023-04-13T15:06:36.199Z,51.32
2023-04-13T15:08:40.081Z,51.23
2023-04-13T15:10:42.987Z,51.41
2023-04-13T15:12:46.276Z,51.52
2023-04-13T15:14:56.277Z,51.33
2023-04-13T15:17:04.602Z,50.36
2023-04-13T15:19:10.070Z,50.06
2023-04-13T15:21:13.905Z,50.05
2023-04-13T15:23:20.145Z,49.47
2023-04-13T15:25:24.626Z,49.04
2023-04-13T15:27:27.975Z,49.19
2023-04-13T15:29:34.715Z,49.55
2023-04-13T15:31:40.047Z,49.77
2023-04-13T15:33:44.677Z,49.12
2023-04-13T15:35:47.370Z,49.00
2023-04-13T15:37:50.837Z,48.55
2023-04-13T15:39:54.641Z,48.80
2023-04-13T15:42:00.386Z,48.95
2023-04-13T15:44:06.036Z,49.36
2023-04-13T15:46:09.031Z,49.36
2023-04-13T15:48:13.256Z,49.37
2023-04-13T15:50:18.905Z,49.25
2023-04-13T15:52:21.814Z,49.00
2023-04-13T15:54:24.422Z,49.49
2023-04-13T15:56:28.516Z,48.94
2023-04-13T15:58:33.269Z,49.12
2023-04-13T16:00:37.528Z,49.30
2023-04-13T16:02:41.112Z,49.17
2023-04-13T16:04:46.098Z,49.26
2023-04-13T16:07:05.141Z,49.11
2023-04-13T16:09:14.316Z,48.90
2023-04-13T16:11:21.174Z,48.75
2023-04-13T16:13:24.930Z,49.04
2023-04-13T16:15:31.044Z,49.20
2023-04-13T16:17:35.225Z,49.16
2023-04-13T16:19:40.062Z,49.15
2023-04-13T16:21:43.490Z,48.79
2023-04-13T16:23:46.911Z,48.95
2023-04-13T16:25:51.055Z,49.23
2023-04-13T16:27:56.281Z,49.00
2023-04-13T16:29:59.775Z,48.90
2023-04-13T16:32:09.117Z,49.06
2023-04-13T16:36:24.697Z,49.43
2023-04-13T16:38:31.294Z,49.50
2023-04-13T16:40:34.131Z,49.78
2023-04-13T16:42:38.957Z,50.09
2023-04-13T16:44:43.580Z,50.03
2023-04-13T16:46:46.665Z,49.84
2023-04-13T16:48:52.574Z,49.93
2023-04-13T16:51:04.677Z,49.90
2023-04-13T16:53:08.119Z,49.88
2023-04-13T16:55:16.316Z,50.25
2023-04-13T16:57:21.556Z,50.64
2023-04-13T16:59:24.123Z,50.63
2023-04-13T17:01:28.127Z,50.84
2023-04-13T17:03:32.988Z,51.13
2023-04-13T17:05:36.083Z,51.49
2023-04-13T17:07:40.925Z,51.79
2023-04-13T17:09:43.607Z,52.00
2023-04-13T17:11:47.581Z,52.40
2023-04-13T17:13:53.870Z,52.54
2023-04-13T17:15:56.852Z,52.31
2023-04-13T17:17:59.566Z,52.08
2023-04-13T17:20:05.728Z,52.14
2023-04-13T17:22:10.686Z,52.50
2023-04-13T17:24:14.994Z,52.90
2023-04-13T17:26:17.945Z,53.10
2023-04-13T17:28:24.469Z,53.37
2023-04-13T17:30:29.420Z,53.54
2023-04-13T17:32:35.115Z,53.92
2023-04-13T17:34:39.252Z,53.63
2023-04-13T17:36:42.285Z,54.11
2023-04-13T17:38:44.884Z,54.06
2023-04-13T17:40:51.069Z,54.02
2023-04-13T17:42:54.246Z,54.33
2023-04-13T17:44:56.788Z,54.79
2023-04-13T17:47:00.972Z,54.99
2023-04-13T17:49:04.898Z,54.77
2023-04-13T17:51:13.217Z,54.61
2023-04-13T17:53:16.499Z,54.65
2023-04-13T17:55:19.989Z,54.98
2023-04-13T17:57:24.184Z,54.91
2023-04-13T17:59:28.399Z,54.84
2023-04-13T18:01:33.062Z,54.83
2023-04-13T18:03:40.241Z,54.81
2023-04-13T18:05:47.255Z,55.00
2023-04-13T18:07:50.716Z,55.39
2023-04-13T18:09:53.875Z,55.36
2023-04-13T18:11:58.946Z,55.76
2023-04-13T18:14:03.860Z,55.98
2023-04-13T18:16:07.162Z,56.05
2023-04-13T18:18:10.477Z,56.08
2023-04-13T18:20:13.573Z,56.23
2023-04-13T18:22:17.361Z,56.44
2023-04-13T18:24:21.733Z,56.66
2023-04-13T18:26:24.843Z,56.70
2023-04-13T18:28:31.740Z,56.90
2023-04-13T18:30:34.926Z,57.07
2023-04-13T18:32:37.724Z,57.02
2023-04-13T18:34:44.050Z,57.14
2023-04-13T18:37:00.211Z,57.29
2023-04-13T18:39:04.196Z,57.27
2023-04-13T18:41:10.431Z,57.13
2023-04-13T18:43:13.759Z,57.51
2023-04-13T18:45:19.418Z,57.72
2023-04-13T18:47:29.045Z,57.80
2023-04-13T18:49:35.088Z,57.81
2023-04-13T18:51:37.873Z,57.28
2023-04-13T18:53:40.806Z,57.27
2023-04-13T18:55:51.965Z,57.37
2023-04-13T18:58:00.455Z,57.94
2023-04-13T19:00:10.501Z,58.14
2023-04-13T19:02:15.738Z,57.67
2023-04-13T19:04:18.918Z,57.61
2023-04-13T19:06:22.001Z,57.49
2023-04-13T19:08:24.827Z,57.56
2023-04-13T19:10:28.222Z,57.78
2023-04-13T19:12:32.849Z,57.92
2023-04-13T19:14:35.753Z,58.00
2023-04-13T19:16:48.223Z,58.09
2023-04-13T19:18:52.522Z,58.50
2023-04-13T19:20:56.679Z,58.32
2023-04-13T19:22:59.881Z,58.44
2023-04-13T19:25:03.498Z,58.25
2023-04-13T19:27:07.582Z,58.22
2023-04-13T19:29:14.384Z,58.16
2023-04-13T19:31:17.243Z,58.20
2023-04-13T19:33:20.055Z,58.44
2023-04-13T19:35:24.494Z,58.78
2023-04-13T19:37:28.504Z,59.08
2023-04-13T19:39:31.470Z,59.19
2023-04-13T19:41:37.481Z,59.32
2023-04-13T19:43:42.738Z,59.60
2023-04-13T19:45:46.631Z,59.72
2023-04-13T19:47:49.708Z,59.83
2023-04-13T19:49:52.375Z,60.09
2023-04-13T19:51:59.290Z,60.15
2023-04-13T19:54:05.690Z,60.27
2023-04-13T19:56:10.978Z,60.37
2023-04-13T19:58:14.311Z,60.51
2023-04-13T20:00:17.977Z,60.72
2023-04-13T20:02:20.933Z,60.84
2023-04-13T20:04:25.400Z,60.76
2023-04-13T20:06:28.997Z,60.92
2023-04-13T20:08:32.113Z,61.27
2023-04-13T20:10:34.962Z,61.11
2023-04-13T20:12:38.147Z,61.20
2023-04-13T20:14:42.462Z,61.31
2023-04-13T20:16:47.802Z,61.45
2023-04-13T20:18:51.191Z,61.53
2023-04-13T20:20:54.308Z,61.57
2023-04-13T20:22:59.982Z,61.70
2023-04-13T20:25:04.258Z,61.86
2023-04-13T20:27:10.616Z,61.93
2023-04-13T20:29:19.043Z,61.70
2023-04-13T20:31:23.625Z,62.00
2023-04-13T20:33:28.444Z,61.89
2023-04-13T20:35:32.623Z,61.98
2023-04-13T20:37:35.889Z,62.28
2023-04-13T20:39:52.602Z,62.10
2023-04-13T20:41:57.010Z,62.29
2023-04-13T20:44:00.337Z,62.15
2023-04-13T20:46:05.015Z,62.12
2023-04-13T20:50:27.001Z,62.23
2023-04-13T20:52:32.801Z,61.98
2023-04-13T20:54:35.638Z,61.58
2023-04-13T20:56:38.847Z,61.74
2023-04-13T20:58:42.355Z,61.84
2023-04-13T21:00:48.590Z,61.79
2023-04-13T21:02:52.990Z,61.95
2023-04-13T21:04:59.000Z,61.96
2023-04-13T21:07:03.350Z,61.92
2023-04-13T21:09:08.652Z,61.90
2023-04-13T21:11:11.635Z,61.49
2023-04-13T21:13:16.182Z,61.41
2023-04-13T21:15:18.820Z,61.16
2023-04-13T21:17:21.863Z,61.15
2023-04-13T21:19:25.797Z,61.24
2023-04-13T21:21:28.344Z,61.36
2023-04-13T21:23:31.132Z,61.06
2023-04-13T21:25:34.911Z,61.13
2023-04-13T21:27:38.591Z,61.40
2023-04-13T21:29:41.851Z,61.67
2023-04-13T21:31:44.944Z,61.72
2023-04-13T21:33:50.003Z,61.64
2023-04-13T21:35:52.908Z,61.47
2023-04-13T21:37:55.514Z,61.51
2023-04-13T21:39:59.029Z,61.66
2023-04-13T21:42:04.663Z,61.18
2023-04-13T21:44:22.308Z,61.37
2023-04-13T21:46:32.091Z,61.59
2023-04-13T21:48:34.897Z,61.13
2023-04-13T21:50:38.774Z,61.13
2023-04-13T21:52:42.186Z,61.69
2023-04-13T21:54:46.301Z,61.72
2023-04-13T21:56:49.387Z,61.36
2023-04-13T21:58:52.242Z,61.43
2023-04-13T22:00:56.207Z,61.68
2023-04-13T22:03:00.840Z,61.81
2023-04-13T22:05:07.654Z,62.17
2023-04-13T22:07:10.517Z,62.21
2023-04-13T22:09:13.597Z,62.04
2023-04-13T22:11:17.013Z,61.85
2023-04-13T22:13:21.244Z,61.95
2023-04-13T22:15:26.853Z,62.29
2023-04-13T22:17:30.530Z,62.59
2023-04-13T22:19:33.843Z,62.73
2023-04-13T22:21:40.830Z,62.76
2023-04-13T22:23:46.232Z,62.87
2023-04-13T22:25:53.679Z,63.02
2023-04-13T22:27:58.611Z,63.24
2023-04-13T22:30:02.721Z,63.37
2023-04-13T22:32:09.249Z,63.64
2023-04-13T22:34:11.902Z,63.74
2023-04-13T22:36:19.573Z,63.73
2023-04-13T22:38:22.215Z,63.97
2023-04-13T22:40:24.959Z,63.89
2023-04-13T22:42:28.488Z,63.79
2023-04-13T22:44:37.680Z,63.67
2023-04-13T22:46:42.483Z,63.64
2023-04-13T22:48:45.416Z,63.66
2023-04-13T22:50:51.047Z,63.57
2023-04-13T22:52:54.695Z,63.19
2023-04-13T22:54:57.339Z,63.00
2023-04-13T22:57:05.399Z,63.33
2023-04-13T22:59:08.429Z,63.36
2023-04-13T23:01:12.808Z,63.78
2023-04-13T23:03:16.093Z,63.82
2023-04-13T23:05:19.486Z,63.98
2023-04-13T23:07:22.278Z,64.02
2023-04-13T23:09:25.684Z,64.00
2023-04-13T23:11:28.704Z,63.89
2023-04-13T23:13:32.854Z,64.01
2023-04-13T23:15:36.108Z,63.80
2023-04-13T23:17:38.727Z,63.65
2023-04-13T23:19:42.384Z,63.79
2023-04-13T23:21:46.142Z,63.82
2023-04-13T23:23:49.236Z,64.43
2023-04-13T23:25:52.106Z,64.83
2023-04-13T23:27:54.855Z,64.65
2023-04-13T23:29:57.722Z,64.60
2023-04-13T23:32:00.749Z,64.77
2023-04-13T23:34:03.529Z,64.77
2023-04-13T23:36:07.105Z,64.84
2023-04-13T23:38:13.834Z,64.73
2023-04-13T23:40:18.101Z,64.33
2023-04-13T23:42:21.216Z,64.53
2023-04-13T23:44:24.098Z,64.38
2023-04-13T23:46:28.786Z,64.25
2023-04-13T23:48:31.781Z,64.37
2023-04-13T23:50:34.332Z,64.38
2023-04-13T23:52:37.130Z,64.31
2023-04-13T23:54:39.873Z,64.36
2023-04-13T23:56:43.027Z,64.60
2023-04-13T23:58:46.625Z,64.84
